createdAt,value
2022-08-28T00:00:03.745Z,86.69
2022-08-28T00:01:03.977Z,86.69
2022-08-28T00:02:04.201Z,86.69
2022-08-28T00:03:04.608Z,86.69
2022-08-28T00:04:04.777Z,86.60
2022-08-28T00:05:05.194Z,86.50
2022-08-28T00:06:05.438Z,86.50
2022-08-28T00:07:05.658Z,86.40
2022-08-28T00:08:06.009Z,86.50
2022-08-28T00:09:06.377Z,86.30
2022-08-28T00:10:06.580Z,86.33
2022-08-28T00:11:06.952Z,86.44
2022-08-28T00:12:07.180Z,86.44
2022-08-28T00:13:07.403Z,86.33
2022-08-28T00:14:07.644Z,86.44
2022-08-28T00:15:07.884Z,86.54
2022-08-28T00:16:08.229Z,86.64
2022-08-28T00:17:08.475Z,86.54
2022-08-28T00:18:08.775Z,86.64
2022-08-28T00:19:09.023Z,86.74
2022-08-28T00:20:09.257Z,86.74
2022-08-28T00:21:09.494Z,86.64
2022-08-28T00:22:09.736Z,86.64
2022-08-28T00:23:09.951Z,86.74
2022-08-28T00:24:10.282Z,86.74
2022-08-28T00:25:10.625Z,86.64
2022-08-28T00:26:10.955Z,86.54
2022-08-28T00:27:11.326Z,86.54
2022-08-28T00:28:23.877Z,86.64
2022-08-28T00:29:12.857Z,86.64
2022-08-28T00:30:12.159Z,86.64
2022-08-28T00:31:12.423Z,86.64
2022-08-28T00:32:12.645Z,86.78
2022-08-28T00:33:12.861Z,86.98
2022-08-28T00:34:13.190Z,86.84
2022-08-28T00:35:13.551Z,86.88
2022-08-28T00:36:13.769Z,86.88
2022-08-28T00:37:14.099Z,86.68
2022-08-28T00:38:14.772Z,86.68
2022-08-28T00:39:14.695Z,86.78
2022-08-28T00:40:15.052Z,86.98
2022-08-28T00:41:15.325Z,86.78
2022-08-28T00:42:15.633Z,86.88
2022-08-28T00:43:15.964Z,86.78
2022-08-28T00:44:16.350Z,86.78
2022-08-28T00:45:16.575Z,86.88
2022-08-28T00:46:16.819Z,86.98
2022-08-28T00:47:17.124Z,86.98
2022-08-28T00:48:17.487Z,86.88
2022-08-28T00:49:17.740Z,86.78
2022-08-28T00:50:17.973Z,86.78
2022-08-28T00:51:18.176Z,86.78
2022-08-28T00:52:18.540Z,86.88
2022-08-28T00:53:18.758Z,86.78
2022-08-28T00:54:19.099Z,86.78
2022-08-28T00:55:19.438Z,86.68
2022-08-28T00:56:19.854Z,86.68
2022-08-28T00:57:20.100Z,86.78
2022-08-28T00:58:20.328Z,86.68
2022-08-28T00:59:20.659Z,86.78
2022-08-28T01:00:21.000Z,86.68
2022-08-28T01:01:21.405Z,86.98
2022-08-28T01:02:21.657Z,86.98
2022-08-28T01:03:25.152Z,87.08
2022-08-28T01:04:22.261Z,86.98
2022-08-28T01:05:22.612Z,86.98
2022-08-28T01:06:22.805Z,86.88
2022-08-28T01:07:23.153Z,86.78
2022-08-28T01:08:23.537Z,86.78
2022-08-28T01:09:23.795Z,86.88
2022-08-28T01:10:24.144Z,86.78
2022-08-28T01:11:24.486Z,86.88
2022-08-28T01:12:24.807Z,86.88
2022-08-28T01:13:25.163Z,86.78
2022-08-28T01:14:25.367Z,87.08
2022-08-28T01:15:25.716Z,86.88
2022-08-28T01:16:28.379Z,86.88
2022-08-28T01:17:27.357Z,86.98
2022-08-28T01:18:26.630Z,87.08
2022-08-28T01:19:26.987Z,86.98
2022-08-28T01:20:27.355Z,86.98
2022-08-28T01:21:27.570Z,87.18
2022-08-28T01:22:27.909Z,87.08
2022-08-28T01:23:28.239Z,87.18
2022-08-28T01:24:28.481Z,87.18
2022-08-28T01:25:28.701Z,87.08
2022-08-28T01:26:29.059Z,87.08
2022-08-28T01:27:29.425Z,87.08
2022-08-28T01:28:29.662Z,87.18
2022-08-28T01:29:29.922Z,87.32
2022-08-28T01:30:30.131Z,87.28
2022-08-28T01:31:30.534Z,87.48
2022-08-28T01:32:30.751Z,87.38
2022-08-28T01:33:30.994Z,87.38
2022-08-28T01:34:31.245Z,87.38
2022-08-28T01:35:31.471Z,87.38
2022-08-28T01:36:31.854Z,87.48
2022-08-28T01:37:32.065Z,87.28
2022-08-28T01:38:32.394Z,87.22
2022-08-28T01:39:32.769Z,87.22
2022-08-28T01:40:33.033Z,87.32
2022-08-28T01:41:33.279Z,87.32
2022-08-28T01:42:33.488Z,87.42
2022-08-28T01:43:33.829Z,87.42
2022-08-28T01:44:34.175Z,87.32
2022-08-28T01:45:34.534Z,87.42
2022-08-28T01:46:34.799Z,87.42
2022-08-28T01:47:35.020Z,87.52
2022-08-28T01:48:35.267Z,87.42
2022-08-28T01:49:35.490Z,87.52
2022-08-28T01:50:35.721Z,87.52
2022-08-28T01:51:38.267Z,87.52
2022-08-28T01:52:36.363Z,87.48
2022-08-28T01:53:36.611Z,87.62
2022-08-28T01:54:36.938Z,87.48
2022-08-28T01:55:37.073Z,87.58
2022-08-28T01:56:37.383Z,87.38
2022-08-28T01:57:37.756Z,87.38
2022-08-28T01:58:38.574Z,87.28
2022-08-28T01:59:38.333Z,87.28
2022-08-28T02:00:38.615Z,87.28
2022-08-28T02:01:38.988Z,87.28
2022-08-28T02:02:39.224Z,87.28
2022-08-28T02:03:39.464Z,87.28
2022-08-28T02:04:39.723Z,87.28
2022-08-28T02:05:39.936Z,87.38
2022-08-28T02:06:40.215Z,87.38
2022-08-28T02:07:40.428Z,87.28
2022-08-28T02:08:40.759Z,87.18
2022-08-28T02:09:41.129Z,87.18
2022-08-28T02:10:41.342Z,87.08
2022-08-28T02:11:41.720Z,87.18
2022-08-28T02:12:41.940Z,87.18
2022-08-28T02:13:42.312Z,87.18
2022-08-28T02:14:42.640Z,87.08
2022-08-28T02:15:43.134Z,87.18
2022-08-28T02:16:43.193Z,87.18
2022-08-28T02:17:43.541Z,86.98
2022-08-28T02:18:43.763Z,86.78
2022-08-28T02:19:44.175Z,86.78
2022-08-28T02:20:44.399Z,86.88
2022-08-28T02:21:44.742Z,87.08
2022-08-28T02:22:45.103Z,86.98
2022-08-28T02:23:45.338Z,86.88
2022-08-28T02:24:45.554Z,86.88
2022-08-28T02:25:45.924Z,86.88
2022-08-28T02:26:46.145Z,86.68
2022-08-28T02:27:46.503Z,86.78
2022-08-28T02:28:46.717Z,86.68
2022-08-28T02:29:47.110Z,86.72
2022-08-28T02:30:47.386Z,86.82
2022-08-28T02:31:47.629Z,86.82
2022-08-28T02:32:47.877Z,86.82
2022-08-28T02:33:48.120Z,87.02
2022-08-28T02:34:49.336Z,86.92
2022-08-28T02:35:48.600Z,86.92
2022-08-28T02:36:48.996Z,86.92
2022-08-28T02:37:49.222Z,86.92
2022-08-28T02:38:51.903Z,87.02
2022-08-28T02:39:49.784Z,87.02
2022-08-28T02:40:50.049Z,87.02
2022-08-28T02:41:50.407Z,87.12
2022-08-28T02:42:50.644Z,87.22
2022-08-28T02:43:50.951Z,87.12
2022-08-28T02:44:51.337Z,87.22
2022-08-28T02:45:51.586Z,87.22
2022-08-28T02:46:51.823Z,87.12
2022-08-28T02:47:52.139Z,87.12
2022-08-28T02:48:52.334Z,87.12
2022-08-28T02:49:52.698Z,86.92
2022-08-28T02:50:52.899Z,86.92
2022-08-28T02:51:53.219Z,86.92
2022-08-28T02:52:53.529Z,86.92
2022-08-28T02:53:53.753Z,86.92
2022-08-28T02:54:54.043Z,86.82
2022-08-28T02:55:54.231Z,87.02
2022-08-28T02:56:54.581Z,86.92
2022-08-28T02:57:54.804Z,87.02
2022-08-28T02:58:55.271Z,87.12
2022-08-28T02:59:55.472Z,87.22
2022-08-28T03:00:55.768Z,87.22
2022-08-28T03:01:55.952Z,87.12
2022-08-28T03:02:56.329Z,87.22
2022-08-28T03:03:56.527Z,87.32
2022-08-28T03:04:57.276Z,87.22
2022-08-28T03:05:57.179Z,87.22
2022-08-28T03:06:57.456Z,87.32
2022-08-28T03:07:57.710Z,87.32
2022-08-28T03:08:58.027Z,87.02
2022-08-28T03:09:58.366Z,87.12
2022-08-28T03:10:58.719Z,87.12
2022-08-28T03:11:59.012Z,87.12
2022-08-28T03:12:59.232Z,87.22
2022-08-28T03:13:59.617Z,87.32
2022-08-28T03:14:59.815Z,87.32
2022-08-28T03:16:00.049Z,87.32
2022-08-28T03:17:00.488Z,87.32
2022-08-28T03:18:00.718Z,87.42
2022-08-28T03:19:01.002Z,87.42
2022-08-28T03:20:01.220Z,87.52
2022-08-28T03:21:01.759Z,87.52
2022-08-28T03:22:01.859Z,87.42
2022-08-28T03:23:02.072Z,87.42
2022-08-28T03:24:02.432Z,87.32
2022-08-28T03:25:02.712Z,87.22
2022-08-28T03:26:02.929Z,87.32
2022-08-28T03:27:03.262Z,87.22
2022-08-28T03:28:03.609Z,87.22
2022-08-28T03:29:03.895Z,87.12
2022-08-28T03:30:04.123Z,87.12
2022-08-28T03:31:04.493Z,87.12
2022-08-28T03:32:04.744Z,87.12
2022-08-28T03:33:04.974Z,87.22
2022-08-28T03:34:05.699Z,87.22
2022-08-28T03:35:05.477Z,87.22
2022-08-28T03:36:05.740Z,87.22
2022-08-28T03:37:05.977Z,87.12
2022-08-28T03:38:06.387Z,87.22
2022-08-28T03:39:06.621Z,87.22
2022-08-28T03:40:06.879Z,87.12
2022-08-28T03:41:07.148Z,87.22
2022-08-28T03:42:07.361Z,87.22
2022-08-28T03:43:07.698Z,87.22
2022-08-28T03:44:08.041Z,87.22
2022-08-28T03:45:08.370Z,87.22
2022-08-28T03:46:08.780Z,87.12
2022-08-28T03:47:09.002Z,87.22
2022-08-28T03:48:09.412Z,87.22
2022-08-28T03:49:09.660Z,87.22
2022-08-28T03:50:09.967Z,86.92
2022-08-28T03:51:10.204Z,86.92
2022-08-28T03:52:10.414Z,87.02
2022-08-28T03:53:10.754Z,87.02
2022-08-28T03:54:11.110Z,87.02
2022-08-28T03:55:11.310Z,87.02
2022-08-28T03:56:11.628Z,86.86
2022-08-28T03:57:11.961Z,86.62
2022-08-28T03:58:18.905Z,86.72
2022-08-28T03:59:13.635Z,86.76
2022-08-28T04:00:12.902Z,86.66
2022-08-28T04:01:13.317Z,86.76
2022-08-28T04:02:13.545Z,86.76
2022-08-28T04:03:13.942Z,86.76
2022-08-28T04:04:14.168Z,86.76
2022-08-28T04:05:14.507Z,86.76
2022-08-28T04:06:14.870Z,86.66
2022-08-28T04:07:15.091Z,86.76
2022-08-28T04:08:15.438Z,86.76
2022-08-28T04:09:15.811Z,86.66
2022-08-28T04:10:16.047Z,86.66
2022-08-28T04:11:16.402Z,86.56
2022-08-28T04:12:16.602Z,86.56
2022-08-28T04:13:16.950Z,86.56
2022-08-28T04:14:17.324Z,86.46
2022-08-28T04:15:17.557Z,86.36
2022-08-28T04:16:17.950Z,86.36
2022-08-28T04:17:18.195Z,86.46
2022-08-28T04:18:18.584Z,86.46
2022-08-28T04:19:18.824Z,86.46
2022-08-28T04:20:19.087Z,86.46
2022-08-28T04:21:19.307Z,86.26
2022-08-28T04:22:19.658Z,86.36
2022-08-28T04:23:19.883Z,86.06
2022-08-28T04:24:20.233Z,85.96
2022-08-28T04:25:20.459Z,86.06
2022-08-28T04:26:21.660Z,86.06
2022-08-28T04:27:20.946Z,86.16
2022-08-28T04:28:21.197Z,86.16
2022-08-28T04:29:21.419Z,86.06
2022-08-28T04:30:21.647Z,86.16
2022-08-28T04:31:31.689Z,85.86
2022-08-28T04:32:23.469Z,85.86
2022-08-28T04:33:22.501Z,85.86
2022-08-28T04:34:22.889Z,85.66
2022-08-28T04:35:23.101Z,85.75
2022-08-28T04:36:23.424Z,85.75
2022-08-28T04:37:23.771Z,85.75
2022-08-28T04:38:24.083Z,85.96
2022-08-28T04:39:24.451Z,85.96
2022-08-28T04:40:24.874Z,85.96
2022-08-28T04:41:25.033Z,85.96
2022-08-28T04:42:25.279Z,86.16
2022-08-28T04:43:25.507Z,86.26
2022-08-28T04:44:25.767Z,86.20
2022-08-28T04:45:26.098Z,86.06
2022-08-28T04:46:26.349Z,86.30
2022-08-28T04:47:26.645Z,86.30
2022-08-28T04:48:26.882Z,86.60
2022-08-28T04:49:27.268Z,86.60
2022-08-28T04:50:27.487Z,86.70
2022-08-28T04:51:27.747Z,86.70
2022-08-28T04:52:28.027Z,86.90
2022-08-28T04:53:28.264Z,86.80
2022-08-28T04:54:28.517Z,87.01
2022-08-28T04:55:53.768Z,87.01
2022-08-28T04:56:30.012Z,87.10
2022-08-28T04:57:32.234Z,87.10
2022-08-28T04:58:30.615Z,87.41
2022-08-28T04:59:29.930Z,87.60
2022-08-28T05:00:30.171Z,87.81
2022-08-28T05:01:30.495Z,88.01
2022-08-28T05:02:30.797Z,88.21
2022-08-28T05:03:31.486Z,88.51
2022-08-28T05:04:31.613Z,88.55
2022-08-28T05:05:31.707Z,88.75
2022-08-28T05:06:31.955Z,88.55
2022-08-28T05:07:32.210Z,88.65
2022-08-28T05:08:32.487Z,88.75
2022-08-28T05:09:32.757Z,88.95
2022-08-28T05:10:32.986Z,88.85
2022-08-28T05:11:35.148Z,88.95
2022-08-28T05:12:33.647Z,89.15
2022-08-28T05:13:33.988Z,89.26
2022-08-28T05:14:34.245Z,89.26
2022-08-28T05:15:34.522Z,89.15
2022-08-28T05:16:34.935Z,89.06
2022-08-28T05:17:35.048Z,88.95
2022-08-28T05:18:35.791Z,89.06
2022-08-28T05:19:35.593Z,89.06
2022-08-28T05:20:35.900Z,89.15
2022-08-28T05:21:36.160Z,89.36
2022-08-28T05:22:36.411Z,89.15
2022-08-28T05:23:36.753Z,89.15
2022-08-28T05:24:36.881Z,89.36
2022-08-28T05:25:44.645Z,89.36
2022-08-28T05:26:38.927Z,89.36
2022-08-28T05:27:37.722Z,89.36
2022-08-28T05:28:37.998Z,89.46
2022-08-28T05:29:38.272Z,89.46
2022-08-28T05:30:38.552Z,89.36
2022-08-28T05:31:38.951Z,89.36
2022-08-28T05:32:39.095Z,89.36
2022-08-28T05:33:39.496Z,89.40
2022-08-28T05:34:39.564Z,89.30
2022-08-28T05:35:39.985Z,89.40
2022-08-28T05:36:40.264Z,89.50
2022-08-28T05:37:40.524Z,89.30
2022-08-28T05:38:40.793Z,89.20
2022-08-28T05:39:41.005Z,89.30
2022-08-28T05:40:41.268Z,89.20
2022-08-28T05:41:41.588Z,89.10
2022-08-28T05:42:41.847Z,89.20
2022-08-28T05:43:42.204Z,89.40
2022-08-28T05:44:42.348Z,89.36
2022-08-28T05:45:42.615Z,89.36
2022-08-28T05:46:42.888Z,89.36
2022-08-28T05:47:43.207Z,89.26
2022-08-28T05:48:43.449Z,88.85
2022-08-28T05:49:43.718Z,88.95
2022-08-28T05:50:47.615Z,89.06
2022-08-28T05:51:44.406Z,89.06
2022-08-28T05:52:44.519Z,89.15
2022-08-28T05:53:44.794Z,89.06
2022-08-28T05:54:45.058Z,89.30
2022-08-28T05:55:45.311Z,89.30
2022-08-28T05:56:46.531Z,89.26
2022-08-28T05:57:45.835Z,89.30
2022-08-28T05:58:46.114Z,89.36
2022-08-28T05:59:46.354Z,89.26
2022-08-28T06:00:46.613Z,89.15
2022-08-28T06:01:46.959Z,89.36
2022-08-28T06:02:47.386Z,89.26
2022-08-28T06:03:47.679Z,89.26
2022-08-28T06:04:47.780Z,89.26
2022-08-28T06:05:48.036Z,89.26
2022-08-28T06:06:48.424Z,89.15
2022-08-28T06:07:48.549Z,89.20
2022-08-28T06:08:58.541Z,89.00
2022-08-28T06:09:50.057Z,88.79
2022-08-28T06:10:50.905Z,89.20
2022-08-28T06:11:49.614Z,89.30
2022-08-28T06:12:49.860Z,89.40
2022-08-28T06:13:50.151Z,89.10
2022-08-28T06:14:50.474Z,89.20
2022-08-28T06:15:51.007Z,89.20
2022-08-28T06:16:50.941Z,89.26
2022-08-28T06:17:51.214Z,89.26
2022-08-28T06:18:51.573Z,89.15
2022-08-28T06:19:51.895Z,89.26
2022-08-28T06:20:52.144Z,89.06
2022-08-28T06:21:52.487Z,89.06
2022-08-28T06:22:52.735Z,88.95
2022-08-28T06:23:53.027Z,88.75
2022-08-28T06:24:53.245Z,88.85
2022-08-28T06:25:53.509Z,88.75
2022-08-28T06:26:56.497Z,88.65
2022-08-28T06:27:55.118Z,88.55
2022-08-28T06:28:54.294Z,88.65
2022-08-28T06:29:54.558Z,88.65
2022-08-28T06:31:18.548Z,88.65
2022-08-28T06:31:56.218Z,88.65
2022-08-28T06:32:55.322Z,88.25
2022-08-28T06:33:55.679Z,88.35
2022-08-28T06:34:55.949Z,88.65
2022-08-28T06:35:56.231Z,88.55
2022-08-28T06:36:56.492Z,88.45
2022-08-28T06:37:56.789Z,88.75
2022-08-28T06:38:57.052Z,88.65
2022-08-28T06:39:57.345Z,88.75
2022-08-28T06:40:57.595Z,88.45
2022-08-28T06:41:57.930Z,88.35
2022-08-28T06:42:58.236Z,88.55
2022-08-28T06:43:58.493Z,88.65
2022-08-28T06:44:58.784Z,88.55
2022-08-28T06:45:59.119Z,88.65
2022-08-28T06:46:59.374Z,88.45
2022-08-28T06:47:59.641Z,88.41
2022-08-28T06:48:59.899Z,88.51
2022-08-28T06:50:00.158Z,88.61
2022-08-28T06:51:00.396Z,88.51
2022-08-28T06:52:00.647Z,88.41
2022-08-28T06:53:00.887Z,88.31
2022-08-28T06:54:01.209Z,88.31
2022-08-28T06:55:01.458Z,88.31
2022-08-28T06:56:01.746Z,87.81
2022-08-28T06:57:02.000Z,88.11
2022-08-28T06:58:02.400Z,88.41
2022-08-28T06:59:02.540Z,88.11
2022-08-28T07:00:02.789Z,88.11
2022-08-28T07:01:03.277Z,88.37
2022-08-28T07:02:03.441Z,88.27
2022-08-28T07:03:03.796Z,88.07
2022-08-28T07:04:04.056Z,87.96
2022-08-28T07:05:04.324Z,88.07
2022-08-28T07:06:04.594Z,88.17
2022-08-28T07:07:04.850Z,88.07
2022-08-28T07:08:05.094Z,87.87
2022-08-28T07:09:05.490Z,87.96
2022-08-28T07:10:05.605Z,87.77
2022-08-28T07:11:05.837Z,87.77
2022-08-28T07:12:06.087Z,87.87
2022-08-28T07:13:06.406Z,87.57
2022-08-28T07:14:06.686Z,87.87
2022-08-28T07:15:06.936Z,87.82
2022-08-28T07:16:07.292Z,87.93
2022-08-28T07:17:07.421Z,87.73
2022-08-28T07:18:07.695Z,86.92
2022-08-28T07:19:07.959Z,86.42
2022-08-28T07:20:08.211Z,86.82
2022-08-28T07:21:12.305Z,87.22
2022-08-28T07:22:08.693Z,87.52
2022-08-28T07:23:08.921Z,87.32
2022-08-28T07:24:09.201Z,87.62
2022-08-28T07:25:09.461Z,87.73
2022-08-28T07:26:09.723Z,87.82
2022-08-28T07:27:09.982Z,87.58
2022-08-28T07:28:10.244Z,87.48
2022-08-28T07:29:11.696Z,87.28
2022-08-28T07:30:10.733Z,87.18
2022-08-28T07:31:11.056Z,86.98
2022-08-28T07:32:12.268Z,86.78
2022-08-28T07:33:11.589Z,86.78
2022-08-28T07:34:11.847Z,86.68
2022-08-28T07:35:12.132Z,86.88
2022-08-28T07:36:16.017Z,86.78
2022-08-28T07:37:15.424Z,86.48
2022-08-28T07:38:13.118Z,86.58
2022-08-28T07:39:13.822Z,86.28
2022-08-28T07:40:13.689Z,86.14
2022-08-28T07:41:14.010Z,86.04
2022-08-28T07:42:14.272Z,85.44
2022-08-28T07:43:14.538Z,85.63
2022-08-28T07:44:14.814Z,85.53
2022-08-28T07:45:15.065Z,85.63
2022-08-28T07:46:15.386Z,85.39
2022-08-28T07:47:15.704Z,85.39
2022-08-28T07:48:16.492Z,84.19
2022-08-28T07:49:17.345Z,84.39
2022-08-28T07:50:16.519Z,84.39
2022-08-28T07:51:16.752Z,84.19
2022-08-28T07:52:17.135Z,83.89
2022-08-28T07:53:17.283Z,83.89
2022-08-28T07:54:18.206Z,84.19
2022-08-28T07:55:17.815Z,84.19
2022-08-28T07:56:18.064Z,84.59
2022-08-28T07:57:18.319Z,84.49
2022-08-28T07:58:18.578Z,84.63
2022-08-28T07:59:19.345Z,84.93
2022-08-28T08:00:19.217Z,84.83
2022-08-28T08:01:19.373Z,84.93
2022-08-28T08:02:19.636Z,85.03
2022-08-28T08:03:20.002Z,85.13
2022-08-28T08:04:20.140Z,85.03
2022-08-28T08:05:20.395Z,83.93
2022-08-28T08:06:20.711Z,84.03
2022-08-28T08:07:20.972Z,84.74
2022-08-28T08:08:21.272Z,84.74
2022-08-28T08:09:22.289Z,84.53
2022-08-28T08:10:21.942Z,84.67
2022-08-28T08:11:22.212Z,85.08
2022-08-28T08:12:22.505Z,84.88
2022-08-28T08:13:22.795Z,84.97
2022-08-28T08:14:23.057Z,84.67
2022-08-28T08:15:23.325Z,85.38
2022-08-28T08:16:23.612Z,85.47
2022-08-28T08:17:24.668Z,85.17
2022-08-28T08:18:24.231Z,85.17
2022-08-28T08:19:24.331Z,85.58
2022-08-28T08:20:24.632Z,85.47
2022-08-28T08:21:29.567Z,85.38
2022-08-28T08:22:26.149Z,85.17
2022-08-28T08:23:25.470Z,85.17
2022-08-28T08:24:25.725Z,85.38
2022-08-28T08:25:25.993Z,85.17
2022-08-28T08:26:26.244Z,85.47
2022-08-28T08:27:26.520Z,85.27
2022-08-28T08:28:26.800Z,85.27
2022-08-28T08:29:27.061Z,85.17
2022-08-28T08:30:27.454Z,85.47
2022-08-28T08:31:27.690Z,84.88
2022-08-28T08:32:27.804Z,84.47
2022-08-28T08:33:28.054Z,84.77
2022-08-28T08:34:28.306Z,85.27
2022-08-28T08:35:28.555Z,85.68
2022-08-28T08:36:28.818Z,85.88
2022-08-28T08:37:29.097Z,85.47
2022-08-28T08:38:29.386Z,85.63
2022-08-28T08:39:29.668Z,85.24
2022-08-28T08:40:29.922Z,84.83
2022-08-28T08:41:30.166Z,84.83
2022-08-28T08:42:30.438Z,84.19
2022-08-28T08:43:31.514Z,83.99
2022-08-28T08:44:33.468Z,83.79
2022-08-28T08:45:31.669Z,83.89
2022-08-28T08:46:31.526Z,83.79
2022-08-28T08:47:31.835Z,83.59
2022-08-28T08:55:04.962Z,83.19
2022-08-28T08:56:05.233Z,83.29
2022-08-28T08:57:05.483Z,82.99
2022-08-28T08:58:34.030Z,83.09
2022-08-28T08:59:34.401Z,82.49
2022-08-28T09:00:34.539Z,82.59
2022-08-28T09:01:28.731Z,81.99
2022-08-28T09:02:31.391Z,82.29
2022-08-28T09:03:29.340Z,82.39
2022-08-28T09:04:29.508Z,82.24
2022-08-28T09:05:29.782Z,82.24
2022-08-28T09:06:30.061Z,82.24
2022-08-28T09:07:30.343Z,81.74
2022-08-28T09:08:30.644Z,81.74
2022-08-28T09:09:30.961Z,81.85
2022-08-28T09:10:31.316Z,81.95
2022-08-28T09:11:31.485Z,81.95
2022-08-28T09:12:31.784Z,82.05
2022-08-28T09:13:32.061Z,82.05
2022-08-28T09:14:32.323Z,82.05
2022-08-28T09:15:32.632Z,82.18
2022-08-28T09:16:32.960Z,81.68
2022-08-28T09:17:33.256Z,81.79
2022-08-28T09:18:33.531Z,81.29
2022-08-28T09:19:33.797Z,81.99
2022-08-28T09:20:34.087Z,82.29
2022-08-28T09:21:34.401Z,81.79
2022-08-28T09:22:34.797Z,82.24
2022-08-28T09:23:34.958Z,82.35
2022-08-28T09:24:35.209Z,81.65
2022-08-28T09:25:35.490Z,81.95
2022-08-28T09:26:35.786Z,81.65
2022-08-28T09:27:39.540Z,80.85
2022-08-28T09:28:36.446Z,80.35
2022-08-28T09:29:36.568Z,80.65
2022-08-28T09:30:36.864Z,80.74
2022-08-28T09:31:37.158Z,80.85
2022-08-28T09:32:37.413Z,80.74
2022-08-28T09:33:37.695Z,80.44
2022-08-28T09:34:39.104Z,79.85
2022-08-28T09:35:38.265Z,80.21
2022-08-28T09:36:38.466Z,79.91
2022-08-28T09:37:38.775Z,79.60
2022-08-28T09:38:39.251Z,78.50
2022-08-28T09:39:39.390Z,79.10
2022-08-28T09:40:39.790Z,77.70
2022-08-28T09:41:40.059Z,79.06
2022-08-28T09:42:40.226Z,79.47
2022-08-28T09:43:40.501Z,79.27
2022-08-28T09:44:40.802Z,78.27
2022-08-28T09:45:41.021Z,77.86
2022-08-28T09:46:41.387Z,76.97
2022-08-28T09:47:46.064Z,76.97
2022-08-28T09:48:42.783Z,76.93
2022-08-28T09:49:42.157Z,76.63
2022-08-28T09:50:42.462Z,76.43
2022-08-28T09:51:42.776Z,75.83
2022-08-28T09:52:43.073Z,76.13
2022-08-28T09:53:44.284Z,76.13
2022-08-28T09:54:43.686Z,75.73
2022-08-28T09:55:43.988Z,75.83
2022-08-28T09:56:44.315Z,75.73
2022-08-28T09:57:44.588Z,77.03
2022-08-28T09:58:44.908Z,77.23
2022-08-28T09:59:45.241Z,77.43
2022-08-28T10:00:45.528Z,76.73
2022-08-28T10:01:45.837Z,77.13
2022-08-28T10:02:46.149Z,78.13
2022-08-28T10:03:46.424Z,78.23
2022-08-28T10:04:46.725Z,77.33
2022-08-28T10:05:47.178Z,76.93
2022-08-28T10:06:47.332Z,76.93
2022-08-28T10:07:47.613Z,76.73
2022-08-28T10:08:47.892Z,76.73
2022-08-28T10:09:48.193Z,77.83
2022-08-28T10:10:48.447Z,78.03
2022-08-28T10:11:48.723Z,78.03
2022-08-28T10:12:49.004Z,78.03
2022-08-28T10:13:49.278Z,77.03
2022-08-28T10:14:49.533Z,77.47
2022-08-28T10:15:49.876Z,77.47
2022-08-28T10:16:50.019Z,77.26
2022-08-28T10:17:50.289Z,77.47
2022-08-28T10:18:50.577Z,75.37
2022-08-28T10:19:50.838Z,76.93
2022-08-28T10:20:51.099Z,76.03
2022-08-28T10:21:53.096Z,76.13
2022-08-28T10:22:51.663Z,75.02
2022-08-28T10:23:51.928Z,73.83
2022-08-28T10:24:52.212Z,75.13
2022-08-28T10:25:52.462Z,73.03
2022-08-28T10:26:52.721Z,72.13
2022-08-28T10:27:52.972Z,73.22
2022-08-28T10:28:53.322Z,74.93
2022-08-28T10:29:53.566Z,74.79
2022-08-28T10:30:53.865Z,74.69
2022-08-28T10:31:54.064Z,74.89
2022-08-28T10:32:54.335Z,74.79
2022-08-28T10:33:56.566Z,74.49
2022-08-28T10:34:54.947Z,74.39
2022-08-28T10:35:55.208Z,72.39
2022-08-28T10:36:55.499Z,73.29
2022-08-28T10:37:55.838Z,72.79
2022-08-28T10:38:55.989Z,71.99
2022-08-28T10:39:56.282Z,74.19
2022-08-28T10:40:56.509Z,73.89
2022-08-28T10:41:56.768Z,73.49
2022-08-28T10:42:57.035Z,73.29
2022-08-28T10:43:57.280Z,72.96
2022-08-28T10:44:57.571Z,73.25
2022-08-28T10:45:57.859Z,72.16
2022-08-28T10:46:58.164Z,70.96
2022-08-28T10:47:58.472Z,71.33
2022-08-28T10:48:58.733Z,72.02
2022-08-28T10:49:59.006Z,73.12
2022-08-28T10:50:59.273Z,72.82
2022-08-28T10:51:59.526Z,70.92
2022-08-28T10:52:59.807Z,71.16
2022-08-28T10:54:00.066Z,71.72
2022-08-28T10:55:00.332Z,72.62
2022-08-28T10:56:00.579Z,72.62
2022-08-28T10:57:00.860Z,73.02
2022-08-28T10:58:01.106Z,72.06
2022-08-28T10:59:01.360Z,69.76
2022-08-28T11:00:01.612Z,70.36
2022-08-28T11:01:01.929Z,72.02
2022-08-28T11:02:02.220Z,69.16
2022-08-28T11:03:02.533Z,69.23
2022-08-28T11:04:02.821Z,69.43
2022-08-28T11:05:03.137Z,70.72
2022-08-28T11:06:03.376Z,71.12
2022-08-28T11:07:03.665Z,71.19
2022-08-28T11:08:03.911Z,71.39
2022-08-28T11:09:04.170Z,71.29
2022-08-28T11:10:04.418Z,72.13
2022-08-28T11:11:04.683Z,71.42
2022-08-28T11:12:04.948Z,71.42
2022-08-28T11:13:05.229Z,71.03
2022-08-28T11:14:05.474Z,71.03
2022-08-28T11:15:05.739Z,70.59
2022-08-28T11:16:06.089Z,70.59
2022-08-28T11:17:06.254Z,70.29
2022-08-28T11:18:06.541Z,69.69
2022-08-28T11:19:06.813Z,68.70
2022-08-28T11:20:07.081Z,68.46
2022-08-28T11:21:07.359Z,69.16
2022-08-28T11:22:07.632Z,69.06
2022-08-28T11:23:07.910Z,69.06
2022-08-28T11:24:08.181Z,69.86
2022-08-28T11:25:09.861Z,69.36
2022-08-28T11:26:08.786Z,69.96
2022-08-28T11:27:09.036Z,68.86
2022-08-28T11:28:09.274Z,69.66
2022-08-28T11:29:09.553Z,69.56
2022-08-28T11:30:09.830Z,68.56
2022-08-28T11:31:10.146Z,67.73
2022-08-28T11:32:11.473Z,67.43
2022-08-28T11:33:10.667Z,68.83
2022-08-28T11:34:10.939Z,68.23
2022-08-28T11:35:11.216Z,67.73
2022-08-28T11:36:11.494Z,67.83
2022-08-28T11:37:11.772Z,67.53
2022-08-28T11:38:12.029Z,67.03
2022-08-28T11:39:12.317Z,68.66
2022-08-28T11:40:12.631Z,68.76
2022-08-28T11:41:12.911Z,67.16
2022-08-28T11:42:13.160Z,68.56
2022-08-28T11:43:13.504Z,67.86
2022-08-28T11:44:13.863Z,67.46
2022-08-28T11:45:13.962Z,66.17
2022-08-28T11:46:14.261Z,64.10
2022-08-28T11:47:15.265Z,63.40
2022-08-28T11:48:14.872Z,64.13
2022-08-28T11:49:15.125Z,65.13
2022-08-28T11:50:15.374Z,66.23
2022-08-28T11:51:15.650Z,66.83
2022-08-28T11:52:15.934Z,67.43
2022-08-28T11:53:17.126Z,67.43
2022-08-28T11:54:16.462Z,68.13
2022-08-28T11:55:16.687Z,68.73
2022-08-28T11:56:28.274Z,67.53
2022-08-28T11:57:18.297Z,65.73
2022-08-28T11:58:17.618Z,67.03
2022-08-28T11:59:17.888Z,66.43
2022-08-28T12:00:18.149Z,66.33
2022-08-28T12:01:18.457Z,65.33
2022-08-28T12:02:18.815Z,65.53
2022-08-28T12:03:19.110Z,65.13
2022-08-28T12:04:19.594Z,66.73
2022-08-28T12:05:19.640Z,67.33
2022-08-28T12:06:19.902Z,65.83
2022-08-28T12:07:20.180Z,68.73
2022-08-28T12:08:20.448Z,67.43
2022-08-28T12:09:20.704Z,66.93
2022-08-28T12:10:20.964Z,66.03
2022-08-28T12:11:21.264Z,64.23
2022-08-28T12:12:21.514Z,64.23
2022-08-28T12:13:21.806Z,64.13
2022-08-28T12:14:22.152Z,64.63
2022-08-28T12:15:22.561Z,67.10
2022-08-28T12:16:22.784Z,67.69
2022-08-28T12:17:24.502Z,66.80
2022-08-28T12:18:23.297Z,67.80
2022-08-28T12:19:23.596Z,66.00
2022-08-28T12:20:23.882Z,65.80
2022-08-28T12:21:24.156Z,64.30
2022-08-28T12:22:24.457Z,64.00
2022-08-28T12:23:24.769Z,60.00
2022-08-28T12:24:25.056Z,60.91
2022-08-28T12:25:25.343Z,63.50
2022-08-28T12:26:25.603Z,64.47
2022-08-28T12:27:25.874Z,64.47
2022-08-28T12:28:27.163Z,63.97
2022-08-28T12:29:27.216Z,64.17
2022-08-28T12:30:26.886Z,64.67
2022-08-28T12:31:27.196Z,64.07
2022-08-28T12:32:27.402Z,64.77
2022-08-28T12:33:27.705Z,64.07
2022-08-28T12:34:27.998Z,63.87
2022-08-28T12:35:30.001Z,64.17
2022-08-28T12:36:28.606Z,64.57
2022-08-28T12:37:28.868Z,65.14
2022-08-28T12:38:29.154Z,64.74
2022-08-28T12:39:29.532Z,63.94
2022-08-28T12:40:29.875Z,64.44
2022-08-28T12:41:30.180Z,64.04
2022-08-28T12:42:30.328Z,63.04
2022-08-28T12:43:30.588Z,63.64
2022-08-28T12:44:30.840Z,63.94
2022-08-28T12:45:31.103Z,64.14
2022-08-28T12:46:31.419Z,64.74
2022-08-28T12:47:31.672Z,65.70
2022-08-28T12:48:31.922Z,65.50
2022-08-28T12:49:32.195Z,64.94
2022-08-28T12:50:32.433Z,64.84
2022-08-28T12:51:32.683Z,64.84
2022-08-28T12:52:32.939Z,64.84
2022-08-28T12:53:33.185Z,64.74
2022-08-28T12:54:33.444Z,65.94
2022-08-28T12:55:33.675Z,66.43
2022-08-28T12:56:33.977Z,65.34
2022-08-28T12:57:34.209Z,61.44
2022-08-28T12:58:34.487Z,61.25
2022-08-28T12:59:34.908Z,60.85
2022-08-28T13:00:35.684Z,62.34
2022-08-28T13:01:36.792Z,63.54
2022-08-28T13:02:36.277Z,62.64